createdAt,value
2023-02-18T00:00:20.349Z,10.45
2023-02-18T00:02:47.241Z,10.39
2023-02-18T00:05:15.483Z,10.40
2023-02-18T00:07:42.146Z,10.44
2023-02-18T00:10:12.664Z,10.35
2023-02-18T00:12:39.713Z,10.38
2023-02-18T00:15:06.804Z,10.46
2023-02-18T00:17:33.255Z,10.43
2023-02-18T00:19:59.843Z,10.38
2023-02-18T00:22:26.323Z,10.24
2023-02-18T00:24:52.820Z,10.24
2023-02-18T00:27:19.283Z,10.44
2023-02-18T00:29:45.762Z,10.45
2023-02-18T00:32:12.279Z,10.51
2023-02-18T00:34:38.757Z,10.44
2023-02-18T00:37:05.206Z,10.33
2023-02-18T00:39:31.933Z,10.38
2023-02-18T00:41:58.398Z,10.49
2023-02-18T00:44:25.843Z,10.52
2023-02-18T00:46:53.282Z,10.50
2023-02-18T00:49:19.777Z,10.50
2023-02-18T00:51:46.187Z,10.53
2023-02-18T00:54:12.639Z,10.56
2023-02-18T00:56:39.037Z,10.59
2023-02-18T00:59:05.444Z,10.65
2023-02-18T01:01:31.962Z,10.61
2023-02-18T01:03:58.575Z,10.51
2023-02-18T01:06:25.171Z,10.56
2023-02-18T01:08:51.665Z,10.54
2023-02-18T01:11:18.227Z,10.61
2023-02-18T01:13:45.487Z,10.53
2023-02-18T01:16:12.099Z,10.44
2023-02-18T01:18:39.457Z,10.51
2023-02-18T01:21:08.535Z,10.52
2023-02-18T01:23:38.004Z,10.49
2023-02-18T01:26:05.374Z,10.48
2023-02-18T01:28:32.081Z,10.40
2023-02-18T01:30:58.798Z,10.48
2023-02-18T01:33:25.319Z,10.36
2023-02-18T01:35:52.914Z,10.31
2023-02-18T01:38:19.435Z,10.30
2023-02-18T01:40:52.479Z,10.30
2023-02-18T01:43:21.996Z,10.34
2023-02-18T01:46:06.441Z,10.38
2023-02-18T01:48:53.583Z,10.41
2023-02-18T01:51:29.812Z,10.33
2023-02-18T01:54:02.128Z,10.39
2023-02-18T01:56:34.722Z,10.43
2023-02-18T01:59:07.741Z,10.46
2023-02-18T02:01:35.052Z,10.44
2023-02-18T02:04:01.987Z,10.51
2023-02-18T02:06:28.766Z,10.41
2023-02-18T02:08:59.503Z,10.38
2023-02-18T02:11:41.402Z,10.33
2023-02-18T02:14:13.836Z,10.30
2023-02-18T02:16:52.314Z,10.36
2023-02-18T02:19:21.795Z,10.35
2023-02-18T02:22:09.569Z,10.34
2023-02-18T02:24:42.585Z,10.26
2023-02-18T02:27:21.969Z,10.41
2023-02-18T02:30:09.991Z,10.30
2023-02-18T02:32:59.922Z,10.35
2023-02-18T02:35:36.884Z,10.47
2023-02-18T02:38:20.053Z,10.49
2023-02-18T02:40:51.808Z,10.38
2023-02-18T02:43:40.366Z,10.37
2023-02-18T02:46:12.208Z,10.50
2023-02-18T02:49:04.109Z,10.40
2023-02-18T02:51:37.935Z,10.50
2023-02-18T02:54:10.414Z,10.39
2023-02-18T02:56:36.849Z,10.44
2023-02-18T02:59:08.966Z,10.47
2023-02-18T03:02:07.263Z,10.44
2023-02-18T03:04:46.189Z,10.45
2023-02-18T03:07:25.440Z,10.44
2023-02-18T03:10:14.648Z,10.47
2023-02-18T03:12:54.821Z,10.45
2023-02-18T03:15:40.918Z,10.45
2023-02-18T03:18:30.346Z,10.43
2023-02-18T03:21:44.638Z,10.44
2023-02-18T03:24:23.412Z,10.43
2023-02-18T03:27:02.385Z,10.41
2023-02-18T03:29:29.849Z,10.39
2023-02-18T03:32:02.982Z,10.39
2023-02-18T03:34:32.325Z,10.33
2023-02-18T03:37:01.187Z,10.39
2023-02-18T03:39:30.754Z,10.38
2023-02-18T03:41:57.283Z,10.34
2023-02-18T03:44:25.235Z,10.37
2023-02-18T03:46:52.463Z,10.38
2023-02-18T03:49:19.113Z,10.35
2023-02-18T03:51:47.628Z,10.47
2023-02-18T03:54:14.628Z,10.46
2023-02-18T03:56:42.622Z,10.47
2023-02-18T03:59:10.113Z,10.40
2023-02-18T04:01:36.643Z,10.50
2023-02-18T04:04:03.479Z,10.59
2023-02-18T04:06:30.092Z,10.38
2023-02-18T04:08:56.887Z,10.33
2023-02-18T04:11:23.515Z,10.37
2023-02-18T04:13:49.966Z,10.44
2023-02-18T04:16:16.685Z,10.54
2023-02-18T04:18:43.127Z,10.56
2023-02-18T04:21:10.901Z,10.58
2023-02-18T04:23:37.851Z,10.62
2023-02-18T04:26:04.574Z,10.61
2023-02-18T04:28:31.024Z,10.57
2023-02-18T04:30:57.508Z,10.57
2023-02-18T04:33:23.973Z,10.42
2023-02-18T04:35:50.394Z,10.45
2023-02-18T04:38:16.838Z,10.46
2023-02-18T04:40:43.335Z,10.57
2023-02-18T04:43:09.797Z,10.47
2023-02-18T04:45:36.205Z,10.46
2023-02-18T04:48:02.678Z,10.30
2023-02-18T04:50:29.186Z,10.42
2023-02-18T04:52:55.649Z,10.34
2023-02-18T04:55:22.262Z,10.36
2023-02-18T04:57:48.778Z,10.41
2023-02-18T05:00:17.898Z,10.36
2023-02-18T05:02:44.871Z,10.44
2023-02-18T05:05:12.467Z,10.27
2023-02-18T05:07:39.003Z,10.35
2023-02-18T05:10:06.403Z,10.35
2023-02-18T05:12:32.854Z,10.25
2023-02-18T05:14:59.338Z,10.38
2023-02-18T05:17:25.856Z,10.43
2023-02-18T05:19:52.328Z,10.49
2023-02-18T05:22:18.774Z,10.50
2023-02-18T05:24:45.174Z,10.43
2023-02-18T05:27:11.634Z,10.36
2023-02-18T05:29:38.132Z,10.30
2023-02-18T05:32:04.865Z,10.17
2023-02-18T05:34:31.312Z,10.20
2023-02-18T05:36:57.788Z,10.26
2023-02-18T05:39:24.258Z,10.40
2023-02-18T05:41:50.679Z,10.52
2023-02-18T05:44:33.433Z,10.53
2023-02-18T05:47:02.481Z,10.61
2023-02-18T05:49:31.045Z,10.57
2023-02-18T05:51:58.003Z,10.42
2023-02-18T05:54:25.195Z,10.41
2023-02-18T05:56:51.699Z,10.43
2023-02-18T05:59:18.558Z,10.53
2023-02-18T06:01:45.567Z,10.59
2023-02-18T06:04:12.201Z,10.59
2023-02-18T06:06:38.934Z,10.64
2023-02-18T06:09:06.508Z,10.60
2023-02-18T06:11:33.159Z,10.68
2023-02-18T06:13:59.590Z,10.61
2023-02-18T06:16:26.467Z,10.60
2023-02-18T06:18:52.987Z,10.51
2023-02-18T06:21:19.848Z,10.50
2023-02-18T06:23:46.763Z,10.43
2023-02-18T06:26:13.609Z,10.36
2023-02-18T06:28:40.160Z,10.39
2023-02-18T06:31:07.133Z,10.49
2023-02-18T06:33:33.619Z,10.66
2023-02-18T06:36:03.102Z,10.70
2023-02-18T06:38:29.575Z,10.76
2023-02-18T06:40:56.011Z,10.73
2023-02-18T06:43:22.636Z,10.84
2023-02-18T06:45:49.101Z,10.75
2023-02-18T06:48:16.797Z,10.76
2023-02-18T06:50:44.006Z,10.76
2023-02-18T06:53:10.923Z,10.87
2023-02-18T06:55:37.914Z,10.86
2023-02-18T06:58:04.815Z,10.79
2023-02-18T07:00:31.692Z,10.74
2023-02-18T07:02:58.255Z,10.72
2023-02-18T07:05:24.812Z,10.80
2023-02-18T07:07:51.218Z,10.83
2023-02-18T07:10:17.838Z,10.78
2023-02-18T07:12:44.362Z,10.96
2023-02-18T07:15:10.874Z,10.92
2023-02-18T07:17:37.587Z,10.88
2023-02-18T07:20:05.731Z,10.88
2023-02-18T07:22:32.326Z,10.90
2023-02-18T07:24:58.935Z,10.99
2023-02-18T07:27:25.958Z,11.01
2023-02-18T07:29:52.553Z,11.03
2023-02-18T07:32:19.788Z,10.98
2023-02-18T07:34:46.440Z,11.13
2023-02-18T07:37:12.943Z,11.09
2023-02-18T07:39:43.137Z,11.14
2023-02-18T07:42:14.130Z,11.15
2023-02-18T07:44:41.342Z,11.16
2023-02-18T07:47:08.747Z,11.14
2023-02-18T07:49:35.332Z,11.19
2023-02-18T07:52:03.393Z,11.29
2023-02-18T07:54:30.938Z,11.24
2023-02-18T07:56:57.409Z,11.36
2023-02-18T07:59:24.046Z,11.39
2023-02-18T08:01:50.505Z,11.34
2023-02-18T08:04:17.174Z,11.29
2023-02-18T08:06:46.639Z,11.39
2023-02-18T08:09:14.377Z,11.50
2023-02-18T08:11:40.858Z,11.31
2023-02-18T08:14:07.896Z,11.38
2023-02-18T08:16:34.826Z,11.48
2023-02-18T08:19:03.570Z,11.41
2023-02-18T08:21:30.839Z,11.46
2023-02-18T08:23:58.985Z,11.47
2023-02-18T08:26:25.734Z,11.46
2023-02-18T08:28:52.542Z,11.52
2023-02-18T08:31:28.527Z,11.52
2023-02-18T08:33:56.306Z,11.47
2023-02-18T08:36:23.224Z,11.49
2023-02-18T08:38:49.709Z,11.63
2023-02-18T08:41:18.547Z,11.70
2023-02-18T08:43:45.259Z,11.69
2023-02-18T08:46:16.099Z,11.74
2023-02-18T08:48:44.376Z,11.79
2023-02-18T08:51:16.096Z,11.85
2023-02-18T08:53:42.489Z,11.79
2023-02-18T08:56:10.137Z,11.71
2023-02-18T08:58:37.782Z,11.80
2023-02-18T09:01:07.390Z,11.80
2023-02-18T09:03:34.670Z,11.82
2023-02-18T09:06:01.875Z,11.56
2023-02-18T09:08:28.913Z,11.71
2023-02-18T09:11:00.008Z,11.76
2023-02-18T09:13:27.309Z,11.64
2023-02-18T09:16:03.356Z,11.83
2023-02-18T09:18:30.443Z,12.02
2023-02-18T09:20:58.112Z,11.84
2023-02-18T09:23:26.319Z,11.91
2023-02-18T09:25:53.382Z,11.98
2023-02-18T09:28:20.316Z,11.83
2023-02-18T09:30:46.870Z,11.88
2023-02-18T09:33:14.234Z,11.80
2023-02-18T09:35:42.425Z,11.85
2023-02-18T09:38:11.381Z,11.97
2023-02-18T09:40:42.255Z,12.05
2023-02-18T09:43:22.334Z,12.14
2023-02-18T09:45:51.162Z,12.29
2023-02-18T09:48:17.550Z,12.36
2023-02-18T09:50:51.415Z,12.38
2023-02-18T09:53:18.386Z,12.28
2023-02-18T09:55:46.293Z,12.28
2023-02-18T09:58:19.492Z,12.26
2023-02-18T10:01:05.613Z,12.19
2023-02-18T10:03:32.350Z,12.11
2023-02-18T10:06:06.395Z,12.05
2023-02-18T10:08:40.322Z,12.05
2023-02-18T10:11:16.784Z,11.98
2023-02-18T10:13:44.358Z,12.12
2023-02-18T10:16:16.861Z,12.28
2023-02-18T10:18:49.141Z,12.41
2023-02-18T10:21:19.390Z,12.36
2023-02-18T10:24:01.878Z,12.41
2023-02-18T10:26:31.191Z,12.46
2023-02-18T10:28:58.500Z,12.38
2023-02-18T10:31:34.218Z,12.47
2023-02-18T10:34:41.088Z,12.54
2023-02-18T10:37:23.619Z,12.58
2023-02-18T10:39:52.771Z,12.61
2023-02-18T10:42:47.219Z,12.51
2023-02-18T10:45:38.649Z,12.51
2023-02-18T10:48:05.019Z,12.65
2023-02-18T10:50:39.683Z,12.70
2023-02-18T10:53:34.025Z,12.72
2023-02-18T10:56:00.687Z,12.52
2023-02-18T10:58:42.500Z,12.45
2023-02-18T11:01:21.694Z,12.49
2023-02-18T11:03:51.044Z,12.58
2023-02-18T11:06:37.890Z,12.59
2023-02-18T11:09:05.939Z,12.67
2023-02-18T11:11:36.938Z,12.74
2023-02-18T11:14:06.187Z,12.78
2023-02-18T11:16:42.088Z,12.66
2023-02-18T11:19:35.105Z,12.61
2023-02-18T11:22:23.822Z,12.53
2023-02-18T11:24:59.175Z,12.54
2023-02-18T11:27:44.550Z,12.54
2023-02-18T11:30:38.031Z,12.58
2023-02-18T11:33:14.014Z,12.74
2023-02-18T11:35:50.382Z,12.63
2023-02-18T11:38:38.019Z,12.58
2023-02-18T11:41:10.672Z,12.50
2023-02-18T11:43:42.144Z,12.58
2023-02-18T11:46:20.225Z,12.63
2023-02-18T11:48:48.045Z,12.74
2023-02-18T11:51:24.771Z,12.81
2023-02-18T11:53:56.074Z,12.82
2023-02-18T11:56:22.564Z,12.67
2023-02-18T11:58:50.778Z,12.63
2023-02-18T12:01:38.510Z,12.67
2023-02-18T12:04:13.522Z,12.64
2023-02-18T12:07:07.747Z,12.43
2023-02-18T12:09:49.434Z,12.34
2023-02-18T12:12:21.962Z,12.41
2023-02-18T12:14:48.418Z,12.35
2023-02-18T12:17:26.731Z,12.38
2023-02-18T12:20:21.126Z,12.47
2023-02-18T12:23:06.134Z,12.35
2023-02-18T12:25:37.565Z,12.27
2023-02-18T12:28:28.499Z,12.19
2023-02-18T12:31:20.374Z,12.34
2023-02-18T12:33:56.020Z,12.28
2023-02-18T12:36:46.332Z,12.21
2023-02-18T12:39:21.579Z,12.21
2023-02-18T12:42:06.905Z,12.06
2023-02-18T12:44:45.803Z,12.07
2023-02-18T12:48:01.430Z,11.97
2023-02-18T12:50:58.608Z,11.86
2023-02-18T12:53:34.859Z,11.84
2023-02-18T12:56:52.241Z,11.94
2023-02-18T13:00:09.298Z,11.90
2023-02-18T13:03:13.214Z,11.95
2023-02-18T13:06:09.531Z,11.97
2023-02-18T13:08:44.906Z,11.84
2023-02-18T13:11:28.338Z,11.83
2023-02-18T13:14:09.714Z,11.92
2023-02-18T13:16:38.127Z,11.80
2023-02-18T13:19:19.144Z,11.71
2023-02-18T13:21:49.337Z,11.77
2023-02-18T13:24:40.717Z,11.80
2023-02-18T13:27:36.922Z,11.90
2023-02-18T13:30:22.245Z,11.90
2023-02-18T13:33:05.854Z,11.84
2023-02-18T13:35:42.895Z,11.94
2023-02-18T13:38:21.545Z,11.99
2023-02-18T13:40:49.323Z,12.00
2023-02-18T13:43:28.066Z,12.00
2023-02-18T13:46:09.436Z,12.04
2023-02-18T13:48:44.803Z,12.07
2023-02-18T13:51:13.620Z,12.04
2023-02-18T13:53:43.320Z,12.07
2023-02-18T13:56:29.891Z,12.15
2023-02-18T13:59:07.874Z,12.07
2023-02-18T14:01:41.953Z,12.23
2023-02-18T14:04:36.583Z,12.14
2023-02-18T14:07:15.330Z,12.17
2023-02-18T14:09:43.682Z,12.16
2023-02-18T14:12:40.266Z,12.12
2023-02-18T14:15:26.684Z,12.27
2023-02-18T14:17:58.878Z,12.39
2023-02-18T14:20:32.248Z,12.33
2023-02-18T14:22:59.495Z,12.29
2023-02-18T14:26:10.203Z,13.35
2023-02-18T14:28:36.665Z,13.09
2023-02-18T14:31:12.842Z,13.26
2023-02-18T14:33:59.173Z,13.60
2023-02-18T14:36:35.331Z,13.56
2023-02-18T14:39:22.510Z,13.03
2023-02-18T14:42:02.128Z,12.55
2023-02-18T14:44:54.662Z,12.43
2023-02-18T14:47:28.817Z,12.36
2023-02-18T14:50:01.006Z,12.07
2023-02-18T14:52:33.006Z,11.91
2023-02-18T14:55:02.042Z,11.92
2023-02-18T14:57:39.125Z,11.84
2023-02-18T15:00:07.171Z,11.94
2023-02-18T15:02:38.474Z,11.78
2023-02-18T15:05:23.660Z,11.79
2023-02-18T15:08:14.214Z,11.75
2023-02-18T15:10:48.400Z,11.58
2023-02-18T15:13:20.525Z,11.49
2023-02-18T15:15:51.105Z,11.56
2023-02-18T15:18:25.321Z,11.37
2023-02-18T15:20:52.050Z,11.42
2023-02-18T15:23:18.688Z,11.33
2023-02-18T15:25:53.919Z,11.43
2023-02-18T15:28:32.490Z,11.41
2023-02-18T15:31:01.409Z,11.39
2023-02-18T15:33:28.726Z,11.34
2023-02-18T15:36:06.881Z,11.30
2023-02-18T15:38:33.570Z,11.35
2023-02-18T15:41:01.437Z,11.37
2023-02-18T15:43:28.030Z,11.39
2023-02-18T15:45:57.712Z,11.30
2023-02-18T15:48:37.402Z,11.31
2023-02-18T15:51:16.958Z,11.30
2023-02-18T15:53:48.915Z,11.30
2023-02-18T15:56:21.661Z,11.24
2023-02-18T15:58:48.133Z,11.06
2023-02-18T16:01:29.237Z,11.19
2023-02-18T16:03:56.552Z,11.17
2023-02-18T16:06:30.525Z,11.00
2023-02-18T16:09:34.513Z,10.95
2023-02-18T16:12:05.610Z,10.99
2023-02-18T16:14:45.095Z,10.86
2023-02-18T16:17:11.448Z,10.89
2023-02-18T16:20:04.887Z,10.78
2023-02-18T16:22:32.011Z,10.80
2023-02-18T16:25:14.512Z,10.75
2023-02-18T16:27:54.939Z,10.79
2023-02-18T16:30:27.277Z,10.70
2023-02-18T16:32:54.800Z,10.72
2023-02-18T16:35:22.902Z,10.83
2023-02-18T16:37:52.874Z,10.85
2023-02-18T16:40:24.285Z,10.86
2023-02-18T16:42:52.013Z,10.78
2023-02-18T16:45:20.206Z,10.85
2023-02-18T16:47:48.822Z,10.86
2023-02-18T16:50:21.125Z,10.81
2023-02-18T16:52:50.186Z,10.77
2023-02-18T16:55:22.650Z,10.72
2023-02-18T16:57:49.154Z,10.75
2023-02-18T17:00:17.494Z,10.73
2023-02-18T17:02:48.187Z,10.65
2023-02-18T17:05:27.626Z,10.63
2023-02-18T17:07:55.474Z,10.59
2023-02-18T17:10:22.075Z,10.53
2023-02-18T17:12:48.635Z,10.63
2023-02-18T17:15:35.161Z,10.47
2023-02-18T17:18:01.716Z,10.42
2023-02-18T17:20:30.851Z,10.44
2023-02-18T17:22:58.438Z,10.40
2023-02-18T17:25:31.238Z,10.45
2023-02-18T17:27:57.786Z,10.39
2023-02-18T17:30:24.537Z,10.38
2023-02-18T17:32:51.098Z,10.26
2023-02-18T17:35:22.977Z,10.13
2023-02-18T17:37:49.881Z,10.14
2023-02-18T17:40:19.704Z,10.22
2023-02-18T17:42:46.508Z,10.22
2023-02-18T17:45:38.705Z,10.35
2023-02-18T17:48:05.342Z,10.31
2023-02-18T17:50:32.371Z,10.23
2023-02-18T17:52:59.236Z,10.15
2023-02-18T17:55:29.676Z,10.20
2023-02-18T17:57:56.831Z,10.04
2023-02-18T18:00:35.476Z,10.09
2023-02-18T18:03:02.915Z,10.01
2023-02-18T18:05:31.843Z,10.12
2023-02-18T18:07:58.628Z,10.18
2023-02-18T18:10:30.651Z,10.19
2023-02-18T18:12:58.769Z,9.98
2023-02-18T18:15:42.676Z,9.93
2023-02-18T18:18:11.511Z,9.99
2023-02-18T18:20:39.467Z,10.04
2023-02-18T18:23:07.795Z,9.98
2023-02-18T18:25:43.027Z,9.92
2023-02-18T18:28:09.773Z,9.89
2023-02-18T18:30:39.738Z,9.82
2023-02-18T18:33:14.914Z,9.67
2023-02-18T18:35:41.497Z,9.68
2023-02-18T18:38:08.049Z,9.70
2023-02-18T18:40:34.559Z,9.69
2023-02-18T18:43:01.989Z,9.67
2023-02-18T18:45:31.811Z,9.71
2023-02-18T18:47:59.931Z,9.66
2023-02-18T18:50:27.568Z,9.72
2023-02-18T18:52:54.410Z,9.65
2023-02-18T18:55:34.756Z,9.61
2023-02-18T18:58:01.554Z,9.71
2023-02-18T19:00:55.576Z,9.61
2023-02-18T19:03:23.595Z,9.56
2023-02-18T19:05:50.988Z,9.54
2023-02-18T19:08:20.067Z,9.43
2023-02-18T19:10:49.386Z,9.36
2023-02-18T19:13:24.334Z,9.37
2023-02-18T19:15:58.990Z,9.32
2023-02-18T19:18:25.509Z,9.20
2023-02-18T19:20:52.016Z,9.05
2023-02-18T19:23:18.493Z,9.05
2023-02-18T19:25:45.057Z,8.93
2023-02-18T19:28:13.864Z,8.82
2023-02-18T19:30:44.033Z,8.82
2023-02-18T19:33:12.502Z,8.80
2023-02-18T19:35:40.076Z,8.73
2023-02-18T19:38:11.934Z,8.70
2023-02-18T19:40:39.333Z,8.79
2023-02-18T19:43:06.777Z,8.66
2023-02-18T19:45:34.172Z,8.49
2023-02-18T19:48:01.306Z,8.39
2023-02-18T19:50:31.040Z,8.32
2023-02-18T19:52:58.964Z,8.29
2023-02-18T19:55:25.939Z,8.19
2023-02-18T19:57:52.389Z,8.24
2023-02-18T20:00:20.917Z,8.28
2023-02-18T20:02:47.625Z,8.14
2023-02-18T20:05:14.762Z,8.08
2023-02-18T20:07:41.619Z,7.96
2023-02-18T20:10:11.459Z,8.02
2023-02-18T20:12:38.206Z,8.10
2023-02-18T20:15:04.929Z,8.03
2023-02-18T20:17:31.656Z,7.98
2023-02-18T20:19:58.239Z,7.93
2023-02-18T20:22:25.153Z,7.98
2023-02-18T20:24:51.658Z,7.94
2023-02-18T20:27:18.133Z,7.88
2023-02-18T20:29:44.800Z,7.90
2023-02-18T20:32:11.417Z,7.87
2023-02-18T20:34:38.038Z,7.78
2023-02-18T20:37:04.525Z,7.75
2023-02-18T20:39:31.077Z,7.77
2023-02-18T20:41:59.302Z,7.76
2023-02-18T20:44:29.518Z,7.78
2023-02-18T20:46:55.980Z,7.76
2023-02-18T20:49:22.455Z,7.78
2023-02-18T20:51:49.178Z,7.89
2023-02-18T20:54:19.408Z,7.95
2023-02-18T20:56:49.043Z,7.94
2023-02-18T20:59:18.526Z,7.93
2023-02-18T21:01:46.481Z,7.90
2023-02-18T21:04:17.867Z,8.05
2023-02-18T21:06:45.521Z,8.04
2023-02-18T21:09:14.270Z,7.94
2023-02-18T21:11:41.252Z,7.94
2023-02-18T21:14:07.806Z,8.01
2023-02-18T21:16:38.585Z,8.02
2023-02-18T21:19:11.881Z,7.79
2023-02-18T21:21:38.347Z,7.72
2023-02-18T21:24:05.183Z,7.63
2023-02-18T21:26:31.744Z,7.70
2023-02-18T21:29:01.466Z,7.60
2023-02-18T21:31:31.215Z,7.42
2023-02-18T21:33:58.353Z,7.42
2023-02-18T21:36:25.596Z,7.40
2023-02-18T21:38:53.407Z,7.35
2023-02-18T21:41:20.639Z,7.35
2023-02-18T21:43:48.138Z,7.42
2023-02-18T21:46:17.543Z,7.48
2023-02-18T21:49:02.736Z,7.37
2023-02-18T21:51:49.815Z,7.28
2023-02-18T21:54:17.437Z,7.15
2023-02-18T21:56:44.201Z,7.21
2023-02-18T21:59:10.681Z,7.15
2023-02-18T22:01:37.245Z,7.15
2023-02-18T22:04:03.883Z,7.23
2023-02-18T22:06:30.355Z,7.21
2023-02-18T22:09:00.125Z,7.25
2023-02-18T22:11:26.550Z,7.14
2023-02-18T22:13:53.014Z,7.18
2023-02-18T22:16:19.582Z,7.11
2023-02-18T22:18:45.970Z,7.11
2023-02-18T22:21:13.104Z,7.13
2023-02-18T22:23:39.950Z,7.09
2023-02-18T22:26:08.734Z,7.11
2023-02-18T22:28:36.140Z,7.13
2023-02-18T22:31:07.486Z,7.09
2023-02-18T22:33:34.789Z,7.00
2023-02-18T22:36:02.870Z,7.01
2023-02-18T22:38:29.952Z,7.02
2023-02-18T22:40:56.506Z,7.03
2023-02-18T22:43:22.976Z,7.01
2023-02-18T22:45:49.446Z,7.03
2023-02-18T22:48:16.918Z,7.01
2023-02-18T22:50:44.710Z,7.13
2023-02-18T22:53:11.159Z,7.13
2023-02-18T22:55:37.573Z,7.07
2023-02-18T22:58:04.066Z,6.99
2023-02-18T23:00:30.466Z,7.07
2023-02-18T23:02:56.894Z,7.14
2023-02-18T23:05:23.365Z,7.31
2023-02-18T23:07:49.795Z,7.32
2023-02-18T23:10:17.360Z,7.26
2023-02-18T23:12:43.772Z,7.23
2023-02-18T23:15:10.697Z,7.39
2023-02-18T23:17:38.187Z,7.57
2023-02-18T23:20:05.075Z,7.54
2023-02-18T23:22:33.521Z,7.57
2023-02-18T23:25:01.324Z,7.46
2023-02-18T23:27:28.873Z,7.50
2023-02-18T23:29:56.367Z,7.35
2023-02-18T23:32:23.060Z,7.27
2023-02-18T23:34:50.923Z,7.19
2023-02-18T23:37:17.342Z,7.10
2023-02-18T23:39:45.242Z,7.18
2023-02-18T23:42:13.137Z,7.28
2023-02-18T23:44:39.587Z,7.33
2023-02-18T23:47:06.147Z,7.29
2023-02-18T23:49:32.581Z,7.23
2023-02-18T23:51:59.091Z,7.24
2023-02-18T23:54:25.843Z,7.18
2023-02-18T23:56:52.483Z,7.25
2023-02-18T23:59:19.004Z,7.12
